createdAt,value
2023-02-23T00:01:44.647Z,100931.02
2023-02-23T00:04:15.387Z,100930.53
2023-02-23T00:06:46.681Z,100922.88
2023-02-23T00:09:18.848Z,100919.19
2023-02-23T00:11:50.168Z,100922.59
2023-02-23T00:14:21.162Z,100921.89
2023-02-23T00:16:52.328Z,100917.52
2023-02-23T00:19:25.324Z,100922.69
2023-02-23T00:21:58.964Z,100917.41
2023-02-23T00:24:30.216Z,100912.70
2023-02-23T00:27:02.435Z,100909.09
2023-02-23T00:29:34.735Z,100905.70
2023-02-23T00:32:05.484Z,100907.66
2023-02-23T00:34:37.211Z,100910.88
2023-02-23T00:37:09.083Z,100907.83
2023-02-23T00:39:40.090Z,100907.41
2023-02-23T00:42:10.655Z,100906.73
2023-02-23T00:44:44.512Z,100906.86
2023-02-23T00:47:15.826Z,100906.23
2023-02-23T00:49:46.825Z,100908.50
2023-02-23T00:52:17.408Z,100901.67
2023-02-23T00:54:48.081Z,100904.91
2023-02-23T00:57:19.786Z,100905.39
2023-02-23T00:59:50.945Z,100908.14
2023-02-23T01:02:22.660Z,100909.89
2023-02-23T01:05:01.157Z,100907.10
2023-02-23T01:07:31.846Z,100912.28
2023-02-23T01:10:03.809Z,100904.24
2023-02-23T01:12:34.428Z,100898.88
2023-02-23T01:15:06.652Z,100901.02
2023-02-23T01:17:37.303Z,100897.87
2023-02-23T01:20:12.586Z,100897.79
2023-02-23T01:22:43.946Z,100904.97
2023-02-23T01:25:14.824Z,100893.09
2023-02-23T01:27:45.995Z,100893.14
2023-02-23T01:30:18.078Z,100897.47
2023-02-23T01:32:49.352Z,100900.02
2023-02-23T01:35:20.500Z,100899.30
2023-02-23T01:37:51.273Z,100894.48
2023-02-23T01:40:30.941Z,100887.77
2023-02-23T01:43:16.938Z,100890.71
2023-02-23T01:45:48.244Z,100879.31
2023-02-23T01:48:24.779Z,100880.23
2023-02-23T01:51:18.717Z,100878.54
2023-02-23T01:53:54.153Z,100874.09
2023-02-23T01:56:27.615Z,100875.84
2023-02-23T01:59:01.760Z,100879.26
2023-02-23T02:01:32.463Z,100868.53
2023-02-23T02:04:06.867Z,100867.98
2023-02-23T02:06:40.491Z,100858.39
2023-02-23T02:09:15.854Z,100864.92
2023-02-23T02:11:49.486Z,100866.70
2023-02-23T02:14:29.287Z,100867.80
2023-02-23T02:17:05.877Z,100864.42
2023-02-23T02:19:45.790Z,100863.65
2023-02-23T02:22:26.042Z,100853.72
2023-02-23T02:25:18.143Z,100848.06
2023-02-23T02:28:08.992Z,100842.30
2023-02-23T02:31:02.257Z,100845.84
2023-02-23T02:33:37.659Z,100839.19
2023-02-23T02:36:39.092Z,100832.77
2023-02-23T02:39:46.144Z,100836.30
2023-02-23T02:42:26.063Z,100823.80
2023-02-23T02:45:04.194Z,100825.00
2023-02-23T02:47:37.827Z,100825.41
2023-02-23T02:50:20.447Z,100828.80
2023-02-23T02:52:57.030Z,100825.39
2023-02-23T02:55:32.134Z,100818.00
2023-02-23T02:58:06.824Z,100823.16
2023-02-23T03:00:59.662Z,100827.92
2023-02-23T03:04:00.640Z,100817.11
2023-02-23T03:07:04.041Z,100825.05
2023-02-23T03:13:06.342Z,100812.52
2023-02-23T03:16:12.846Z,100818.80
2023-02-23T03:19:02.106Z,100812.44
2023-02-23T03:22:24.851Z,100807.22
2023-02-23T03:25:31.406Z,100813.37
2023-02-23T03:28:38.869Z,100808.33
2023-02-23T03:31:50.199Z,100811.80
2023-02-23T03:34:53.583Z,100818.23
2023-02-23T03:37:48.052Z,100808.23
2023-02-23T03:40:43.323Z,100809.10
2023-02-23T03:43:34.671Z,100809.10
2023-02-23T03:46:27.619Z,100814.06
2023-02-23T03:49:20.824Z,100803.39
2023-02-23T03:52:11.989Z,100806.52
2023-02-23T03:55:03.298Z,100806.55
2023-02-23T03:57:54.471Z,100807.13
2023-02-23T04:00:48.055Z,100800.97
2023-02-23T04:03:39.757Z,100793.41
2023-02-23T04:06:32.333Z,100806.09
2023-02-23T04:09:23.433Z,100789.45
2023-02-23T04:12:26.804Z,100794.94
2023-02-23T04:15:02.359Z,100791.89
2023-02-23T04:17:33.306Z,100789.86
2023-02-23T04:20:12.331Z,100776.47
2023-02-23T04:22:42.901Z,100781.03
2023-02-23T04:25:17.321Z,100785.47
2023-02-23T04:27:48.386Z,100781.09
2023-02-23T04:30:20.832Z,100786.10
2023-02-23T04:32:51.416Z,100777.02
2023-02-23T04:35:22.447Z,100779.48
2023-02-23T04:37:55.967Z,100776.59
2023-02-23T04:40:29.048Z,100775.22
2023-02-23T04:42:59.957Z,100772.77
2023-02-23T04:45:31.718Z,100761.19
2023-02-23T04:48:02.619Z,100767.80
2023-02-23T04:50:33.583Z,100758.39
2023-02-23T04:53:05.811Z,100767.56
2023-02-23T04:55:36.506Z,100768.02
2023-02-23T04:58:08.364Z,100763.94
2023-02-23T05:00:39.657Z,100762.22
2023-02-23T05:03:10.954Z,100759.73
2023-02-23T05:05:41.638Z,100752.64
2023-02-23T05:08:12.226Z,100753.41
2023-02-23T05:10:42.796Z,100749.67
2023-02-23T05:13:15.008Z,100742.73
2023-02-23T05:15:47.727Z,100744.31
2023-02-23T05:18:18.327Z,100735.68
2023-02-23T05:20:50.196Z,100741.05
2023-02-23T05:23:22.146Z,100738.25
2023-02-23T05:25:53.004Z,100735.19
2023-02-23T05:28:23.872Z,100738.13
2023-02-23T05:30:54.520Z,100741.56
2023-02-23T05:33:25.338Z,100735.98
2023-02-23T05:35:55.914Z,100732.70
2023-02-23T05:38:27.722Z,100741.77
2023-02-23T05:40:58.985Z,100736.41
2023-02-23T05:43:29.562Z,100735.12
2023-02-23T05:46:03.525Z,100735.74
2023-02-23T05:48:42.430Z,100734.83
2023-02-23T05:51:14.805Z,100727.84
2023-02-23T05:53:49.753Z,100735.56
2023-02-23T05:56:27.423Z,100730.25
2023-02-23T05:59:10.794Z,100730.02
2023-02-23T06:01:46.926Z,100726.48
2023-02-23T06:04:22.360Z,100730.88
2023-02-23T06:06:57.171Z,100721.52
2023-02-23T06:09:44.110Z,100720.97
2023-02-23T06:12:15.797Z,100722.37
2023-02-23T06:14:46.752Z,100727.88
2023-02-23T06:17:22.346Z,100723.56
2023-02-23T06:19:56.497Z,100725.20
2023-02-23T06:22:32.499Z,100720.57
2023-02-23T06:25:09.380Z,100725.26
2023-02-23T06:27:46.511Z,100724.40
2023-02-23T06:30:19.922Z,100730.61
2023-02-23T06:32:52.635Z,100719.02
2023-02-23T06:35:25.392Z,100723.14
2023-02-23T06:38:03.763Z,100722.17
2023-02-23T06:40:42.640Z,100717.30
2023-02-23T06:43:23.249Z,100717.64
2023-02-23T06:45:58.793Z,100717.91
2023-02-23T06:48:30.689Z,100722.52
2023-02-23T06:51:10.133Z,100725.20
2023-02-23T06:53:45.024Z,100724.72
2023-02-23T06:56:17.922Z,100725.27
2023-02-23T06:58:52.055Z,100727.69
2023-02-23T07:01:25.924Z,100726.31
2023-02-23T07:04:03.041Z,100723.88
2023-02-23T07:06:42.451Z,100724.19
2023-02-23T07:09:22.047Z,100661.79
2023-02-23T07:11:55.645Z,100717.78
2023-02-23T07:14:30.065Z,100721.31
2023-02-23T07:17:21.321Z,100724.36
2023-02-23T07:19:55.558Z,100717.50
2023-02-23T07:22:32.750Z,100713.09
2023-02-23T07:25:05.325Z,100716.19
2023-02-23T07:27:37.626Z,100709.61
2023-02-23T07:30:11.690Z,100703.50
2023-02-23T07:32:44.076Z,100709.59
2023-02-23T07:35:15.639Z,100694.46
2023-02-23T07:37:51.897Z,100696.86
2023-02-23T07:40:25.080Z,100687.90
2023-02-23T07:43:03.391Z,100689.59
2023-02-23T07:45:39.482Z,100698.09
2023-02-23T07:48:17.190Z,100699.40
2023-02-23T07:50:57.548Z,100684.43
2023-02-23T07:53:29.209Z,100693.94
2023-02-23T07:56:03.238Z,100682.28
2023-02-23T07:58:38.133Z,100683.31
2023-02-23T08:04:07.790Z,100685.42
2023-02-23T08:06:42.651Z,100684.89
2023-02-23T08:09:17.041Z,100676.53
2023-02-23T08:11:49.352Z,100673.45
2023-02-23T08:14:23.612Z,100675.11
2023-02-23T08:16:56.006Z,100674.63
2023-02-23T08:19:31.279Z,100669.84
2023-02-23T08:22:10.001Z,100669.84
2023-02-23T08:24:45.155Z,100657.37
2023-02-23T08:27:18.481Z,100659.57
2023-02-23T08:29:56.027Z,100666.26
2023-02-23T08:32:27.995Z,100657.23
2023-02-23T08:35:01.899Z,100668.61
2023-02-23T08:37:36.019Z,100663.63
2023-02-23T08:40:14.814Z,100655.74
2023-02-23T08:42:50.114Z,100647.16
2023-02-23T08:45:24.621Z,100655.77
2023-02-23T08:47:57.274Z,100644.88
2023-02-23T08:50:31.192Z,100642.98
2023-02-23T08:53:02.803Z,100633.86
2023-02-23T08:55:34.931Z,100635.07
2023-02-23T08:58:06.896Z,100641.34
2023-02-23T09:00:38.352Z,100627.61
2023-02-23T09:03:09.033Z,100629.95
2023-02-23T09:05:39.887Z,100622.86
2023-02-23T09:08:10.656Z,100614.08
2023-02-23T09:10:43.515Z,100602.15
2023-02-23T09:13:14.569Z,100607.93
2023-02-23T09:15:45.186Z,100592.55
2023-02-23T09:18:17.633Z,100601.64
2023-02-23T09:20:48.317Z,100591.99
2023-02-23T09:23:18.938Z,100594.45
2023-02-23T09:25:49.518Z,100594.90
2023-02-23T09:28:21.679Z,100583.59
2023-02-23T09:30:52.276Z,100579.30
2023-02-23T09:33:22.891Z,100578.74
2023-02-23T09:35:53.580Z,100587.84
2023-02-23T09:38:24.860Z,100569.22
2023-02-23T09:40:56.604Z,100570.93
2023-02-23T09:43:45.248Z,100567.69
2023-02-23T09:46:38.508Z,100574.99
2023-02-23T09:49:13.564Z,100567.67
2023-02-23T09:51:48.658Z,100567.61
2023-02-23T09:54:21.133Z,100568.54
2023-02-23T09:56:56.400Z,100561.12
2023-02-23T09:59:29.047Z,100567.41
2023-02-23T10:02:05.348Z,100559.88
2023-02-23T10:04:42.692Z,100561.02
2023-02-23T10:07:31.237Z,100552.63
2023-02-23T10:10:10.603Z,100562.14
2023-02-23T10:12:45.393Z,100560.80
2023-02-23T10:15:34.037Z,100549.02
2023-02-23T10:18:45.646Z,100549.20
2023-02-23T10:21:10.801Z,100545.28
2023-02-23T10:23:53.594Z,100545.53
2023-02-23T10:26:28.148Z,100537.05
2023-02-23T10:29:00.525Z,100538.31
2023-02-23T10:31:37.522Z,100540.07
2023-02-23T10:34:13.784Z,100536.39
2023-02-23T10:37:05.066Z,100533.02
2023-02-23T10:39:36.002Z,100537.67
2023-02-23T10:42:12.188Z,100531.39
2023-02-23T10:44:47.574Z,100526.52
2023-02-23T10:47:22.250Z,100518.91
2023-02-23T10:49:55.189Z,100512.81
2023-02-23T10:52:32.988Z,100520.78
2023-02-23T10:55:10.830Z,100511.87
2023-02-23T10:57:41.526Z,100510.84
2023-02-23T11:00:21.718Z,100506.70
2023-02-23T11:02:52.295Z,100495.03
2023-02-23T11:05:35.475Z,100489.88
2023-02-23T11:08:27.351Z,100483.07
2023-02-23T11:11:04.169Z,100493.27
2023-02-23T11:13:44.509Z,100485.55
2023-02-23T11:16:25.555Z,100475.61
2023-02-23T11:19:01.943Z,100480.25
2023-02-23T11:21:38.800Z,100480.67
2023-02-23T11:24:31.595Z,100473.13
2023-02-23T11:27:07.043Z,100478.98
2023-02-23T11:29:48.021Z,100465.45
2023-02-23T11:32:33.394Z,100459.78
2023-02-23T11:35:26.534Z,100468.09
2023-02-23T11:37:57.796Z,100458.52
2023-02-23T11:40:35.093Z,100453.64
2023-02-23T11:43:10.897Z,100452.50
2023-02-23T11:45:57.418Z,100440.51
2023-02-23T11:48:30.904Z,100436.03
2023-02-23T11:51:02.335Z,100434.66
2023-02-23T11:53:43.917Z,100433.37
2023-02-23T11:56:17.661Z,100429.56
2023-02-23T11:58:54.060Z,100429.03
2023-02-23T12:01:45.480Z,100422.33
2023-02-23T12:04:29.860Z,100426.03
2023-02-23T12:07:26.021Z,100420.65
2023-02-23T12:10:00.262Z,100418.41
2023-02-23T12:12:44.077Z,100416.53
2023-02-23T12:15:18.781Z,100414.71
2023-02-23T12:17:52.217Z,100407.33
2023-02-23T12:20:29.010Z,100404.66
2023-02-23T12:23:02.521Z,100395.25
2023-02-23T12:25:56.152Z,100400.75
2023-02-23T12:28:36.535Z,100398.34
2023-02-23T12:31:26.463Z,100385.28
2023-02-23T12:34:05.964Z,100402.17
2023-02-23T12:36:42.858Z,100388.78
2023-02-23T12:39:24.885Z,100385.56
2023-02-23T12:41:59.585Z,100395.52
2023-02-23T12:44:44.850Z,100379.31
2023-02-23T12:47:18.280Z,100369.70
2023-02-23T12:49:54.520Z,100358.22
2023-02-23T12:52:28.197Z,100366.15
2023-02-23T12:54:58.933Z,100361.98
2023-02-23T12:57:39.494Z,100357.42
2023-02-23T13:00:26.792Z,100356.41
2023-02-23T13:03:26.063Z,100347.22
2023-02-23T13:06:14.769Z,100344.70
2023-02-23T13:09:03.579Z,100340.23
2023-02-23T13:12:09.148Z,100332.23
2023-02-23T13:15:04.095Z,100330.93
2023-02-23T13:17:44.004Z,100329.83
2023-02-23T13:20:33.780Z,100326.13
2023-02-23T13:23:11.309Z,100322.41
2023-02-23T13:26:07.608Z,100317.34
2023-02-23T13:28:43.995Z,100304.32
2023-02-23T13:31:30.811Z,100298.77
2023-02-23T13:34:04.036Z,100289.28
2023-02-23T13:36:36.978Z,100285.81
2023-02-23T13:39:25.391Z,100280.36
2023-02-23T13:42:15.091Z,100280.02
2023-02-23T13:44:57.366Z,100276.16
2023-02-23T13:47:55.829Z,100272.92
2023-02-23T13:50:38.053Z,100246.74
2023-02-23T13:53:11.094Z,100278.89
2023-02-23T13:55:49.989Z,100274.52
2023-02-23T13:58:23.171Z,100277.69
2023-02-23T14:01:08.124Z,100277.69
2023-02-23T14:03:59.004Z,100277.52
2023-02-23T14:06:32.945Z,100274.40
2023-02-23T14:09:22.943Z,100264.58
2023-02-23T14:11:57.665Z,100262.50
2023-02-23T14:14:37.645Z,100264.73
2023-02-23T14:17:13.113Z,100256.69
2023-02-23T14:19:45.472Z,100252.70
2023-02-23T14:22:22.296Z,100249.08
2023-02-23T14:25:29.468Z,100252.67
2023-02-23T14:28:19.431Z,100242.30
2023-02-23T14:31:02.109Z,100238.09
2023-02-23T14:33:49.941Z,100235.39
2023-02-23T14:36:30.393Z,100245.05
2023-02-23T14:39:15.632Z,100237.27
2023-02-23T14:42:04.529Z,100238.20
2023-02-23T14:44:41.496Z,100227.39
2023-02-23T14:47:20.587Z,100228.06
2023-02-23T14:50:00.072Z,100230.59
2023-02-23T14:52:33.551Z,100220.44
2023-02-23T14:55:15.912Z,100215.80
2023-02-23T14:57:46.521Z,100211.70
2023-02-23T15:00:24.447Z,100213.09
2023-02-23T15:03:00.659Z,100215.20
2023-02-23T15:05:47.498Z,100213.81
2023-02-23T15:08:20.635Z,100209.50
2023-02-23T15:11:02.848Z,100206.67
2023-02-23T15:13:39.305Z,100204.45
2023-02-23T15:16:13.170Z,100205.48
2023-02-23T15:18:46.214Z,100203.03
2023-02-23T15:21:22.936Z,100195.64
2023-02-23T15:24:02.413Z,100181.03
2023-02-23T15:26:35.330Z,100180.74
2023-02-23T15:29:15.010Z,100175.02
2023-02-23T15:31:52.854Z,100178.23
2023-02-23T15:34:30.667Z,100171.96
2023-02-23T15:37:07.847Z,100170.56
2023-02-23T15:39:52.128Z,100164.59
2023-02-23T15:42:40.612Z,100165.73
2023-02-23T15:45:16.866Z,100159.50
2023-02-23T15:47:47.947Z,100151.17
2023-02-23T15:50:35.900Z,100144.50
2023-02-23T15:52:57.034Z,100140.96
2023-02-23T15:55:36.854Z,100141.80
2023-02-23T15:58:23.661Z,100142.25
2023-02-23T16:01:15.703Z,100148.50
2023-02-23T16:03:49.202Z,100140.80
2023-02-23T16:06:29.388Z,100139.98
2023-02-23T16:09:22.255Z,100143.09
2023-02-23T16:12:05.213Z,100139.72
2023-02-23T16:14:47.801Z,100146.76
2023-02-23T16:17:51.354Z,100147.86
2023-02-23T16:20:26.021Z,100146.89
2023-02-23T16:22:58.601Z,100142.63
2023-02-23T16:25:32.712Z,100140.81
2023-02-23T16:28:13.015Z,100149.92
2023-02-23T16:30:49.396Z,100136.03
2023-02-23T16:33:31.649Z,100143.81
2023-02-23T16:36:18.974Z,100133.54
2023-02-23T16:39:01.426Z,100125.31
2023-02-23T16:41:36.479Z,100127.98
2023-02-23T16:44:15.479Z,100125.66
2023-02-23T16:47:07.008Z,100131.53
2023-02-23T16:49:44.288Z,100121.06
2023-02-23T16:52:28.210Z,100135.81
2023-02-23T16:55:03.066Z,100117.61
2023-02-23T16:57:40.797Z,100128.36
2023-02-23T17:00:20.110Z,100120.72
2023-02-23T17:02:53.945Z,100121.98
2023-02-23T17:05:28.291Z,100120.18
2023-02-23T17:08:01.769Z,100116.70
2023-02-23T17:10:37.659Z,100118.27
2023-02-23T17:13:12.622Z,100116.95
2023-02-23T17:15:49.371Z,100118.95
2023-02-23T17:21:00.972Z,100108.44
2023-02-23T17:23:41.773Z,100106.11
2023-02-23T17:26:23.278Z,100100.19
2023-02-23T17:28:55.486Z,100097.27
2023-02-23T17:31:30.204Z,100085.67
2023-02-23T17:34:03.344Z,100088.73
2023-02-23T17:36:43.736Z,100084.72
2023-02-23T17:39:17.121Z,100074.53
2023-02-23T17:41:48.562Z,100071.56
2023-02-23T17:44:21.920Z,100070.00
2023-02-23T17:47:02.176Z,100068.05
2023-02-23T17:49:34.393Z,100064.27
2023-02-23T17:52:07.547Z,100054.65
2023-02-23T17:54:45.086Z,100048.16
2023-02-23T17:57:20.140Z,100054.34
2023-02-23T17:59:54.365Z,100046.53
2023-02-23T18:02:27.382Z,100055.50
2023-02-23T18:05:00.205Z,100040.12
2023-02-23T18:07:34.612Z,100044.30
2023-02-23T18:10:08.634Z,100042.67
2023-02-23T18:12:44.714Z,100040.95
2023-02-23T18:15:20.835Z,100034.56
2023-02-23T18:17:58.687Z,100034.92
2023-02-23T18:20:32.982Z,100046.59
2023-02-23T18:23:08.247Z,100037.37
2023-02-23T18:25:42.020Z,100037.35
2023-02-23T18:28:14.747Z,100040.22
2023-02-23T18:30:48.877Z,100038.31
2023-02-23T18:33:24.896Z,100032.83
2023-02-23T18:36:01.814Z,100037.73
2023-02-23T18:38:33.979Z,100033.19
2023-02-23T18:41:09.172Z,100031.72
2023-02-23T18:43:41.342Z,100023.51
2023-02-23T18:46:27.813Z,100025.39
2023-02-23T18:49:02.762Z,100026.20
2023-02-23T18:51:38.606Z,100026.84
2023-02-23T18:54:15.122Z,100019.93
2023-02-23T18:56:49.604Z,100024.77
2023-02-23T18:59:20.216Z,100016.40
2023-02-23T19:01:50.802Z,100012.44
2023-02-23T19:04:21.346Z,100009.15
2023-02-23T19:06:51.930Z,100008.27
2023-02-23T19:09:23.759Z,99998.47
2023-02-23T19:11:55.564Z,99993.84
2023-02-23T19:14:47.957Z,99999.08
2023-02-23T19:16:59.940Z,99992.94
2023-02-23T19:19:31.710Z,99997.86
2023-02-23T19:22:02.296Z,99989.86
2023-02-23T19:24:32.876Z,99981.39
2023-02-23T19:27:04.656Z,99924.73
2023-02-23T19:29:36.374Z,99981.39
2023-02-23T19:32:07.453Z,99976.13
2023-02-23T19:34:40.246Z,99973.16
2023-02-23T19:37:10.946Z,99967.02
2023-02-23T19:39:41.478Z,99970.08
2023-02-23T19:42:12.435Z,99962.47
2023-02-23T19:44:43.299Z,99959.33
2023-02-23T19:47:13.884Z,99965.33
2023-02-23T19:49:44.446Z,99964.80
2023-02-23T19:52:15.005Z,99961.40
2023-02-23T19:54:45.698Z,99964.38
2023-02-23T19:57:16.279Z,99962.75
2023-02-23T19:59:48.328Z,99949.78
2023-02-23T20:02:20.206Z,99948.47
2023-02-23T20:04:51.522Z,99951.30
2023-02-23T20:07:22.521Z,99949.08
2023-02-23T20:09:54.442Z,99937.45
2023-02-23T20:12:25.022Z,99943.30
2023-02-23T20:14:57.447Z,99941.36
2023-02-23T20:17:29.474Z,99945.78
2023-02-23T20:20:00.097Z,99925.00
2023-02-23T20:22:32.380Z,99930.89
2023-02-23T20:25:04.738Z,99935.18
2023-02-23T20:27:37.285Z,99930.88
2023-02-23T20:30:09.209Z,99922.33
2023-02-23T20:32:40.694Z,99922.77
2023-02-23T20:35:14.226Z,99929.86
2023-02-23T20:37:45.150Z,99921.12
2023-02-23T20:40:18.755Z,99916.53
2023-02-23T20:42:52.504Z,99918.42
2023-02-23T20:45:26.887Z,99918.31
2023-02-23T20:47:57.558Z,99915.65
2023-02-23T20:50:31.486Z,99917.59
2023-02-23T20:53:02.602Z,99910.97
2023-02-23T20:55:34.413Z,99900.69
2023-02-23T20:58:06.017Z,99907.98
2023-02-23T21:00:36.636Z,99907.30
2023-02-23T21:03:08.399Z,99896.89
2023-02-23T21:05:43.293Z,99897.22
2023-02-23T21:08:14.000Z,99903.58
2023-02-23T21:10:45.287Z,99889.57
2023-02-23T21:13:17.907Z,99892.08
2023-02-23T21:15:59.306Z,99888.57
2023-02-23T21:18:30.386Z,99886.23
2023-02-23T21:21:03.646Z,99880.32
2023-02-23T21:23:34.708Z,99876.76
2023-02-23T21:26:07.467Z,99879.80
2023-02-23T21:28:39.446Z,99871.13
2023-02-23T21:31:12.768Z,99876.87
2023-02-23T21:33:45.330Z,99870.71
2023-02-23T21:36:17.239Z,99861.44
2023-02-23T21:38:47.893Z,99853.93
2023-02-23T21:41:18.919Z,99851.28
2023-02-23T21:43:51.394Z,99846.63
2023-02-23T21:46:23.616Z,99842.88
2023-02-23T21:48:54.231Z,99834.98
2023-02-23T21:51:25.897Z,99837.25
2023-02-23T21:54:00.544Z,99834.55
2023-02-23T21:56:32.924Z,99831.23
2023-02-23T21:59:04.724Z,99825.66
2023-02-23T22:01:38.298Z,99818.52
2023-02-23T22:04:10.394Z,99828.84
2023-02-23T22:06:44.838Z,99821.52
2023-02-23T22:09:16.164Z,99821.03
2023-02-23T22:11:48.764Z,99816.98
2023-02-23T22:14:19.356Z,99820.39
2023-02-23T22:16:50.251Z,99809.83
2023-02-23T22:19:21.400Z,99815.92
2023-02-23T22:21:52.006Z,99800.34
2023-02-23T22:24:22.555Z,99813.11
2023-02-23T22:26:56.337Z,99812.31
2023-02-23T22:29:28.089Z,99810.25
2023-02-23T22:31:58.848Z,99814.39
2023-02-23T22:34:29.597Z,99803.42
2023-02-23T22:37:00.193Z,99811.35
2023-02-23T22:39:32.318Z,99801.14
2023-02-23T22:42:04.509Z,99799.54
2023-02-23T22:44:35.053Z,99803.53
2023-02-23T22:47:06.402Z,99796.94
2023-02-23T22:49:37.229Z,99793.80
2023-02-23T22:52:07.841Z,99783.66
2023-02-23T22:54:40.054Z,99780.52
2023-02-23T22:57:10.655Z,99782.04
2023-02-23T22:59:42.774Z,99781.20
2023-02-23T23:02:13.386Z,99767.06
2023-02-23T23:04:44.270Z,99766.58
2023-02-23T23:07:15.241Z,99762.66
2023-02-23T23:09:45.807Z,99760.72
2023-02-23T23:12:18.006Z,99756.06
2023-02-23T23:14:48.906Z,99754.14
2023-02-23T23:17:20.475Z,99756.78
2023-02-23T23:19:52.403Z,99748.13
2023-02-23T23:22:25.651Z,99743.06
2023-02-23T23:24:57.276Z,99745.52
2023-02-23T23:27:27.909Z,99733.05
2023-02-23T23:29:58.569Z,99739.16
2023-02-23T23:32:30.736Z,99732.20
2023-02-23T23:35:01.705Z,99729.14
2023-02-23T23:37:32.349Z,99734.77
2023-02-23T23:40:04.584Z,99727.72
2023-02-23T23:42:35.284Z,99725.79
2023-02-23T23:45:08.305Z,99723.83
2023-02-23T23:47:38.963Z,99717.55
2023-02-23T23:50:10.943Z,99713.23
2023-02-23T23:52:43.833Z,99713.30
2023-02-23T23:55:16.199Z,99705.25
2023-02-23T23:57:46.796Z,99707.98
